sensor_id;sensor_type;location;lat;lon;timestamp;temperature;humidity
37460;DHT22;23318;50.966;5.284;2023-02-03T00:01:06;9.60;99.90
37460;DHT22;23318;50.966;5.284;2023-02-03T00:03:31;9.50;99.90
37460;DHT22;23318;50.966;5.284;2023-02-03T00:05:57;9.60;99.90
37460;DHT22;23318;50.966;5.284;2023-02-03T00:08:24;9.50;99.90
37460;DHT22;23318;50.966;5.284;2023-02-03T00:10:50;9.50;99.90
37460;DHT22;23318;50.966;5.284;2023-02-03T00:13:16;9.50;99.90
37460;DHT22;23318;50.966;5.284;2023-02-03T00:15:41;9.50;99.90
37460;DHT22;23318;50.966;5.284;2023-02-03T00:18:07;9.60;99.90
37460;DHT22;23318;50.966;5.284;2023-02-03T00:20:33;9.60;99.90
37460;DHT22;23318;50.966;5.284;2023-02-03T00:23:03;9.50;99.90
37460;DHT22;23318;50.966;5.284;2023-02-03T00:25:29;9.50;99.90
37460;DHT22;23318;50.966;5.284;2023-02-03T00:27:55;9.50;99.90
37460;DHT22;23318;50.966;5.284;2023-02-03T00:30:21;9.50;99.90
37460;DHT22;23318;50.966;5.284;2023-02-03T00:32:46;9.50;99.90
37460;DHT22;23318;50.966;5.284;2023-02-03T00:35:12;9.50;99.90
37460;DHT22;23318;50.966;5.284;2023-02-03T00:37:38;9.50;99.90
37460;DHT22;23318;50.966;5.284;2023-02-03T00:40:04;9.50;99.90
37460;DHT22;23318;50.966;5.284;2023-02-03T00:42:29;9.50;99.90
37460;DHT22;23318;50.966;5.284;2023-02-03T00:44:55;9.50;99.90
37460;DHT22;23318;50.966;5.284;2023-02-03T00:47:21;9.50;99.90
37460;DHT22;23318;50.966;5.284;2023-02-03T00:49:46;9.50;99.90
37460;DHT22;23318;50.966;5.284;2023-02-03T00:52:12;9.40;99.90
37460;DHT22;23318;50.966;5.284;2023-02-03T00:54:38;9.40;99.90
37460;DHT22;23318;50.966;5.284;2023-02-03T00:57:03;9.40;99.90
37460;DHT22;23318;50.966;5.284;2023-02-03T00:59:29;9.40;99.90
37460;DHT22;23318;50.966;5.284;2023-02-03T01:01:55;9.40;99.90
37460;DHT22;23318;50.966;5.284;2023-02-03T01:04:20;9.40;99.90
37460;DHT22;23318;50.966;5.284;2023-02-03T01:06:46;9.40;99.90
37460;DHT22;23318;50.966;5.284;2023-02-03T01:09:11;9.40;99.90
37460;DHT22;23318;50.966;5.284;2023-02-03T01:11:37;9.40;99.90
37460;DHT22;23318;50.966;5.284;2023-02-03T01:14:03;9.40;99.90
37460;DHT22;23318;50.966;5.284;2023-02-03T01:16:29;9.40;99.90
37460;DHT22;23318;50.966;5.284;2023-02-03T01:18:55;9.40;99.90
37460;DHT22;23318;50.966;5.284;2023-02-03T01:21:24;9.40;99.90
37460;DHT22;23318;50.966;5.284;2023-02-03T01:23:51;9.50;99.90
37460;DHT22;23318;50.966;5.284;2023-02-03T01:26:19;9.50;99.90
37460;DHT22;23318;50.966;5.284;2023-02-03T01:28:56;9.50;99.90
37460;DHT22;23318;50.966;5.284;2023-02-03T01:31:25;9.60;99.90
37460;DHT22;23318;50.966;5.284;2023-02-03T01:33:52;9.40;99.90
37460;DHT22;23318;50.966;5.284;2023-02-03T01:36:19;9.50;99.90
37460;DHT22;23318;50.966;5.284;2023-02-03T01:38:45;9.50;99.90
37460;DHT22;23318;50.966;5.284;2023-02-03T01:41:16;9.50;99.90
37460;DHT22;23318;50.966;5.284;2023-02-03T01:43:46;9.50;99.90
37460;DHT22;23318;50.966;5.284;2023-02-03T01:46:41;9.60;99.90
37460;DHT22;23318;50.966;5.284;2023-02-03T01:49:16;9.60;99.90
37460;DHT22;23318;50.966;5.284;2023-02-03T01:51:44;9.60;99.90
37460;DHT22;23318;50.966;5.284;2023-02-03T01:54:13;9.60;99.90
37460;DHT22;23318;50.966;5.284;2023-02-03T01:56:44;9.60;99.90
37460;DHT22;23318;50.966;5.284;2023-02-03T01:59:13;9.60;99.90
37460;DHT22;23318;50.966;5.284;2023-02-03T02:01:40;9.60;99.90
37460;DHT22;23318;50.966;5.284;2023-02-03T02:04:07;9.60;99.90
37460;DHT22;23318;50.966;5.284;2023-02-03T02:06:33;9.60;99.90
37460;DHT22;23318;50.966;5.284;2023-02-03T02:08:59;9.70;99.90
37460;DHT22;23318;50.966;5.284;2023-02-03T02:11:26;9.60;99.90
37460;DHT22;23318;50.966;5.284;2023-02-03T02:13:54;9.60;99.90
37460;DHT22;23318;50.966;5.284;2023-02-03T02:16:31;9.60;99.90
37460;DHT22;23318;50.966;5.284;2023-02-03T02:35:12;9.60;99.90
37460;DHT22;23318;50.966;5.284;2023-02-03T02:37:55;9.60;99.90
37460;DHT22;23318;50.966;5.284;2023-02-03T02:43:17;9.70;99.90
37460;DHT22;23318;50.966;5.284;2023-02-03T02:45:52;9.60;99.90
37460;DHT22;23318;50.966;5.284;2023-02-03T02:48:23;9.70;99.90
37460;DHT22;23318;50.966;5.284;2023-02-03T02:50:52;9.70;99.90
37460;DHT22;23318;50.966;5.284;2023-02-03T02:53:22;9.60;99.90
37460;DHT22;23318;50.966;5.284;2023-02-03T02:55:51;9.70;99.90
37460;DHT22;23318;50.966;5.284;2023-02-03T02:58:18;9.60;99.90
37460;DHT22;23318;50.966;5.284;2023-02-03T03:00:44;9.60;99.90
37460;DHT22;23318;50.966;5.284;2023-02-03T03:03:16;9.50;99.90
37460;DHT22;23318;50.966;5.284;2023-02-03T03:05:45;9.50;99.90
37460;DHT22;23318;50.966;5.284;2023-02-03T03:08:13;9.60;99.90
37460;DHT22;23318;50.966;5.284;2023-02-03T03:10:41;9.50;99.90
37460;DHT22;23318;50.966;5.284;2023-02-03T03:13:12;9.60;99.90
37460;DHT22;23318;50.966;5.284;2023-02-03T03:15:40;9.60;99.90
37460;DHT22;23318;50.966;5.284;2023-02-03T03:18:45;9.60;99.90
37460;DHT22;23318;50.966;5.284;2023-02-03T03:21:04;9.50;99.90
37460;DHT22;23318;50.966;5.284;2023-02-03T03:23:36;9.60;99.90
37460;DHT22;23318;50.966;5.284;2023-02-03T03:26:26;9.50;99.90
37460;DHT22;23318;50.966;5.284;2023-02-03T03:29:09;9.50;99.90
37460;DHT22;23318;50.966;5.284;2023-02-03T03:31:37;9.50;99.90
37460;DHT22;23318;50.966;5.284;2023-02-03T03:34:03;9.60;99.90
37460;DHT22;23318;50.966;5.284;2023-02-03T03:36:35;9.60;99.90
37460;DHT22;23318;50.966;5.284;2023-02-03T03:39:22;9.50;99.90
37460;DHT22;23318;50.966;5.284;2023-02-03T03:44:39;9.50;99.90
37460;DHT22;23318;50.966;5.284;2023-02-03T03:47:18;9.60;99.90
37460;DHT22;23318;50.966;5.284;2023-02-03T03:49:47;9.60;99.90
37460;DHT22;23318;50.966;5.284;2023-02-03T03:52:19;9.60;99.90
37460;DHT22;23318;50.966;5.284;2023-02-03T03:54:47;9.50;99.90
37460;DHT22;23318;50.966;5.284;2023-02-03T03:57:33;9.50;99.90
37460;DHT22;23318;50.966;5.284;2023-02-03T04:00:03;9.60;99.90
37460;DHT22;23318;50.966;5.284;2023-02-03T04:02:30;9.60;99.90
37460;DHT22;23318;50.966;5.284;2023-02-03T04:04:59;9.60;99.90
37460;DHT22;23318;50.966;5.284;2023-02-03T04:07:37;9.60;99.90
37460;DHT22;23318;50.966;5.284;2023-02-03T04:10:06;9.60;99.90
37460;DHT22;23318;50.966;5.284;2023-02-03T04:12:36;9.60;99.90
37460;DHT22;23318;50.966;5.284;2023-02-03T04:15:02;9.50;99.90
37460;DHT22;23318;50.966;5.284;2023-02-03T04:17:29;9.50;99.90
37460;DHT22;23318;50.966;5.284;2023-02-03T04:19:55;9.50;99.90
37460;DHT22;23318;50.966;5.284;2023-02-03T04:22:20;9.50;99.90
37460;DHT22;23318;50.966;5.284;2023-02-03T04:24:46;9.60;99.90
37460;DHT22;23318;50.966;5.284;2023-02-03T04:27:12;9.50;99.90
37460;DHT22;23318;50.966;5.284;2023-02-03T04:29:37;9.60;99.90
37460;DHT22;23318;50.966;5.284;2023-02-03T04:32:03;9.60;99.90
37460;DHT22;23318;50.966;5.284;2023-02-03T04:34:29;9.60;99.90
37460;DHT22;23318;50.966;5.284;2023-02-03T04:36:54;9.60;99.90
37460;DHT22;23318;50.966;5.284;2023-02-03T04:39:20;9.70;99.90
37460;DHT22;23318;50.966;5.284;2023-02-03T04:41:46;9.60;99.90
37460;DHT22;23318;50.966;5.284;2023-02-03T04:44:12;9.60;99.90
37460;DHT22;23318;50.966;5.284;2023-02-03T04:46:38;9.60;99.90
37460;DHT22;23318;50.966;5.284;2023-02-03T04:49:03;9.60;99.90
37460;DHT22;23318;50.966;5.284;2023-02-03T04:51:29;9.70;99.90
37460;DHT22;23318;50.966;5.284;2023-02-03T04:53:55;9.60;99.90
37460;DHT22;23318;50.966;5.284;2023-02-03T04:56:20;9.60;99.90
37460;DHT22;23318;50.966;5.284;2023-02-03T04:58:46;9.60;99.90
37460;DHT22;23318;50.966;5.284;2023-02-03T05:01:12;9.60;99.90
37460;DHT22;23318;50.966;5.284;2023-02-03T05:03:37;9.70;99.90
37460;DHT22;23318;50.966;5.284;2023-02-03T05:06:03;9.70;99.90
37460;DHT22;23318;50.966;5.284;2023-02-03T05:08:32;9.70;99.90
37460;DHT22;23318;50.966;5.284;2023-02-03T05:10:57;9.60;99.90
37460;DHT22;23318;50.966;5.284;2023-02-03T05:13:23;9.70;99.90
37460;DHT22;23318;50.966;5.284;2023-02-03T05:15:49;9.60;99.90
37460;DHT22;23318;50.966;5.284;2023-02-03T05:18:14;9.70;99.90
37460;DHT22;23318;50.966;5.284;2023-02-03T05:20:40;9.50;99.90
37460;DHT22;23318;50.966;5.284;2023-02-03T05:23:06;9.60;99.90
37460;DHT22;23318;50.966;5.284;2023-02-03T05:25:31;9.50;99.90
37460;DHT22;23318;50.966;5.284;2023-02-03T05:27:57;9.50;99.90
37460;DHT22;23318;50.966;5.284;2023-02-03T05:30:22;9.50;99.90
37460;DHT22;23318;50.966;5.284;2023-02-03T05:32:48;9.60;99.90
37460;DHT22;23318;50.966;5.284;2023-02-03T05:35:14;9.50;99.90
37460;DHT22;23318;50.966;5.284;2023-02-03T05:37:43;9.60;99.90
37460;DHT22;23318;50.966;5.284;2023-02-03T05:40:09;9.50;99.90
37460;DHT22;23318;50.966;5.284;2023-02-03T05:42:53;9.50;99.90
37460;DHT22;23318;50.966;5.284;2023-02-03T05:45:19;9.50;99.90
37460;DHT22;23318;50.966;5.284;2023-02-03T05:47:44;9.50;99.90
37460;DHT22;23318;50.966;5.284;2023-02-03T05:50:10;9.50;99.90
37460;DHT22;23318;50.966;5.284;2023-02-03T05:52:36;9.60;99.90
37460;DHT22;23318;50.966;5.284;2023-02-03T05:55:02;9.60;99.90
37460;DHT22;23318;50.966;5.284;2023-02-03T05:57:27;9.50;99.90
37460;DHT22;23318;50.966;5.284;2023-02-03T05:59:53;9.60;99.90
37460;DHT22;23318;50.966;5.284;2023-02-03T06:02:19;9.60;99.90
37460;DHT22;23318;50.966;5.284;2023-02-03T06:04:44;9.60;99.90
37460;DHT22;23318;50.966;5.284;2023-02-03T06:07:10;9.60;99.90
37460;DHT22;23318;50.966;5.284;2023-02-03T06:09:35;9.50;99.90
37460;DHT22;23318;50.966;5.284;2023-02-03T06:12:04;9.60;99.90
37460;DHT22;23318;50.966;5.284;2023-02-03T06:14:30;9.60;99.90
37460;DHT22;23318;50.966;5.284;2023-02-03T06:16:55;9.60;99.90
37460;DHT22;23318;50.966;5.284;2023-02-03T06:19:21;9.60;99.90
37460;DHT22;23318;50.966;5.284;2023-02-03T06:21:47;9.60;99.90
37460;DHT22;23318;50.966;5.284;2023-02-03T06:24:12;9.60;99.90
37460;DHT22;23318;50.966;5.284;2023-02-03T06:26:38;9.60;99.90
37460;DHT22;23318;50.966;5.284;2023-02-03T06:29:04;9.60;99.90
37460;DHT22;23318;50.966;5.284;2023-02-03T06:31:29;9.60;99.90
37460;DHT22;23318;50.966;5.284;2023-02-03T06:33:55;9.60;99.90
37460;DHT22;23318;50.966;5.284;2023-02-03T06:36:22;9.60;99.90
37460;DHT22;23318;50.966;5.284;2023-02-03T06:38:48;9.60;99.90
37460;DHT22;23318;50.966;5.284;2023-02-03T06:41:13;9.60;99.90
37460;DHT22;23318;50.966;5.284;2023-02-03T06:43:39;9.60;99.90
37460;DHT22;23318;50.966;5.284;2023-02-03T06:46:05;9.60;99.90
37460;DHT22;23318;50.966;5.284;2023-02-03T06:48:30;9.60;99.90
37460;DHT22;23318;50.966;5.284;2023-02-03T06:50:56;9.60;99.90
37460;DHT22;23318;50.966;5.284;2023-02-03T06:53:22;9.50;99.90
37460;DHT22;23318;50.966;5.284;2023-02-03T06:55:47;9.60;99.90
37460;DHT22;23318;50.966;5.284;2023-02-03T06:58:13;9.50;99.90
37460;DHT22;23318;50.966;5.284;2023-02-03T07:00:39;9.50;99.90
37460;DHT22;23318;50.966;5.284;2023-02-03T07:03:04;9.50;99.90
37460;DHT22;23318;50.966;5.284;2023-02-03T07:05:30;9.50;99.90
37460;DHT22;23318;50.966;5.284;2023-02-03T07:07:56;9.60;99.90
37460;DHT22;23318;50.966;5.284;2023-02-03T07:10:22;9.60;99.90
37460;DHT22;23318;50.966;5.284;2023-02-03T07:12:48;9.60;99.90
37460;DHT22;23318;50.966;5.284;2023-02-03T07:15:15;9.70;99.90
37460;DHT22;23318;50.966;5.284;2023-02-03T07:17:41;9.50;99.90
37460;DHT22;23318;50.966;5.284;2023-02-03T07:20:07;9.50;99.90
37460;DHT22;23318;50.966;5.284;2023-02-03T07:22:33;9.70;99.90
37460;DHT22;23318;50.966;5.284;2023-02-03T07:24:58;9.60;99.90
37460;DHT22;23318;50.966;5.284;2023-02-03T07:27:24;9.60;99.90
37460;DHT22;23318;50.966;5.284;2023-02-03T07:29:51;9.60;99.90
37460;DHT22;23318;50.966;5.284;2023-02-03T07:32:17;9.70;99.90
37460;DHT22;23318;50.966;5.284;2023-02-03T07:34:42;9.70;99.90
37460;DHT22;23318;50.966;5.284;2023-02-03T07:37:08;9.70;99.90
37460;DHT22;23318;50.966;5.284;2023-02-03T07:39:33;9.70;99.90
37460;DHT22;23318;50.966;5.284;2023-02-03T07:41:59;9.70;99.90
37460;DHT22;23318;50.966;5.284;2023-02-03T07:44:25;9.70;99.90
37460;DHT22;23318;50.966;5.284;2023-02-03T07:46:51;9.70;99.90
37460;DHT22;23318;50.966;5.284;2023-02-03T07:49:16;9.80;99.90
37460;DHT22;23318;50.966;5.284;2023-02-03T07:51:42;9.80;99.90
37460;DHT22;23318;50.966;5.284;2023-02-03T07:54:07;9.90;99.90
37460;DHT22;23318;50.966;5.284;2023-02-03T07:56:33;9.80;99.90
37460;DHT22;23318;50.966;5.284;2023-02-03T07:58:59;9.80;99.90
37460;DHT22;23318;50.966;5.284;2023-02-03T08:01:25;9.80;99.90
37460;DHT22;23318;50.966;5.284;2023-02-03T08:03:51;9.80;99.90
37460;DHT22;23318;50.966;5.284;2023-02-03T08:06:16;9.80;99.90
37460;DHT22;23318;50.966;5.284;2023-02-03T08:08:42;9.80;99.90
37460;DHT22;23318;50.966;5.284;2023-02-03T08:11:09;9.90;99.90
37460;DHT22;23318;50.966;5.284;2023-02-03T08:13:34;9.80;99.90
37460;DHT22;23318;50.966;5.284;2023-02-03T08:16:00;9.80;99.90
37460;DHT22;23318;50.966;5.284;2023-02-03T08:18:26;9.90;99.90
37460;DHT22;23318;50.966;5.284;2023-02-03T08:20:51;9.80;99.90
37460;DHT22;23318;50.966;5.284;2023-02-03T08:23:17;9.80;99.90
37460;DHT22;23318;50.966;5.284;2023-02-03T08:25:43;9.80;99.90
37460;DHT22;23318;50.966;5.284;2023-02-03T08:28:09;9.80;99.90
37460;DHT22;23318;50.966;5.284;2023-02-03T08:30:34;9.90;99.90
37460;DHT22;23318;50.966;5.284;2023-02-03T08:33:00;9.90;99.90
37460;DHT22;23318;50.966;5.284;2023-02-03T08:35:26;9.90;99.90
37460;DHT22;23318;50.966;5.284;2023-02-03T08:37:52;9.90;99.90
37460;DHT22;23318;50.966;5.284;2023-02-03T08:40:18;10.00;99.90
37460;DHT22;23318;50.966;5.284;2023-02-03T08:42:43;10.00;99.90
37460;DHT22;23318;50.966;5.284;2023-02-03T08:45:09;9.90;99.90
37460;DHT22;23318;50.966;5.284;2023-02-03T08:47:35;10.00;99.90
37460;DHT22;23318;50.966;5.284;2023-02-03T08:50:03;9.90;99.90
37460;DHT22;23318;50.966;5.284;2023-02-03T08:52:28;10.00;99.90
37460;DHT22;23318;50.966;5.284;2023-02-03T08:54:54;10.00;99.90
37460;DHT22;23318;50.966;5.284;2023-02-03T08:57:20;10.00;99.90
37460;DHT22;23318;50.966;5.284;2023-02-03T08:59:45;10.00;99.90
37460;DHT22;23318;50.966;5.284;2023-02-03T09:02:16;10.00;99.90
37460;DHT22;23318;50.966;5.284;2023-02-03T09:04:43;10.00;99.90
37460;DHT22;23318;50.966;5.284;2023-02-03T09:07:09;10.10;99.90
37460;DHT22;23318;50.966;5.284;2023-02-03T09:09:36;10.00;99.90
37460;DHT22;23318;50.966;5.284;2023-02-03T09:12:02;10.00;99.90
37460;DHT22;23318;50.966;5.284;2023-02-03T09:14:31;10.10;99.90
37460;DHT22;23318;50.966;5.284;2023-02-03T09:16:58;10.10;99.90
37460;DHT22;23318;50.966;5.284;2023-02-03T09:19:24;10.10;99.90
37460;DHT22;23318;50.966;5.284;2023-02-03T09:21:50;10.10;99.90
37460;DHT22;23318;50.966;5.284;2023-02-03T09:24:16;10.20;99.90
37460;DHT22;23318;50.966;5.284;2023-02-03T09:26:42;10.10;99.90
37460;DHT22;23318;50.966;5.284;2023-02-03T09:29:08;10.10;99.90
37460;DHT22;23318;50.966;5.284;2023-02-03T09:31:34;10.00;99.90
37460;DHT22;23318;50.966;5.284;2023-02-03T09:33:59;10.00;99.90
37460;DHT22;23318;50.966;5.284;2023-02-03T09:36:25;9.80;99.90
37460;DHT22;23318;50.966;5.284;2023-02-03T09:38:51;9.70;99.90
37460;DHT22;23318;50.966;5.284;2023-02-03T09:47:18;9.70;99.90
37460;DHT22;23318;50.966;5.284;2023-02-03T09:50:00;9.70;99.90
37460;DHT22;23318;50.966;5.284;2023-02-03T09:52:31;9.80;99.90
37460;DHT22;23318;50.966;5.284;2023-02-03T09:55:10;9.80;99.90
37460;DHT22;23318;50.966;5.284;2023-02-03T09:58:09;9.80;99.90
37460;DHT22;23318;50.966;5.284;2023-02-03T10:12:15;9.90;99.90
37460;DHT22;23318;50.966;5.284;2023-02-03T10:17:51;9.90;99.90
37460;DHT22;23318;50.966;5.284;2023-02-03T10:20:39;10.00;99.90
37460;DHT22;23318;50.966;5.284;2023-02-03T10:23:18;10.00;99.90
37460;DHT22;23318;50.966;5.284;2023-02-03T10:25:51;10.00;99.90
37460;DHT22;23318;50.966;5.284;2023-02-03T10:28:22;10.10;99.90
37460;DHT22;23318;50.966;5.284;2023-02-03T10:30:58;10.10;99.90
37460;DHT22;23318;50.966;5.284;2023-02-03T10:33:29;10.10;99.90
37460;DHT22;23318;50.966;5.284;2023-02-03T10:41:20;10.20;99.90
37460;DHT22;23318;50.966;5.284;2023-02-03T10:43:49;10.20;99.90
37460;DHT22;23318;50.966;5.284;2023-02-03T10:46:27;10.20;99.90
37460;DHT22;23318;50.966;5.284;2023-02-03T10:48:54;10.20;99.90
37460;DHT22;23318;50.966;5.284;2023-02-03T10:51:39;10.20;99.90
37460;DHT22;23318;50.966;5.284;2023-02-03T10:54:29;10.10;99.90
37460;DHT22;23318;50.966;5.284;2023-02-03T10:57:04;10.20;99.90
37460;DHT22;23318;50.966;5.284;2023-02-03T10:59:34;10.20;99.90
37460;DHT22;23318;50.966;5.284;2023-02-03T11:02:09;10.10;99.90
37460;DHT22;23318;50.966;5.284;2023-02-03T11:04:45;10.10;99.90
37460;DHT22;23318;50.966;5.284;2023-02-03T11:07:23;10.00;99.90
37460;DHT22;23318;50.966;5.284;2023-02-03T11:09:49;9.90;99.90
37460;DHT22;23318;50.966;5.284;2023-02-03T11:12:19;9.90;99.90
37460;DHT22;23318;50.966;5.284;2023-02-03T11:14:50;10.00;99.90
37460;DHT22;23318;50.966;5.284;2023-02-03T11:17:24;10.20;99.90
37460;DHT22;23318;50.966;5.284;2023-02-03T11:19:59;10.40;99.90
37460;DHT22;23318;50.966;5.284;2023-02-03T11:22:35;10.30;99.90
37460;DHT22;23318;50.966;5.284;2023-02-03T11:25:03;10.30;99.90
37460;DHT22;23318;50.966;5.284;2023-02-03T11:27:39;10.40;99.90
37460;DHT22;23318;50.966;5.284;2023-02-03T11:30:27;10.40;99.90
37460;DHT22;23318;50.966;5.284;2023-02-03T11:32:59;10.40;99.90
37460;DHT22;23318;50.966;5.284;2023-02-03T11:35:27;10.50;99.90
37460;DHT22;23318;50.966;5.284;2023-02-03T11:38:00;10.40;99.90
37460;DHT22;23318;50.966;5.284;2023-02-03T11:40:32;10.40;99.90
37460;DHT22;23318;50.966;5.284;2023-02-03T11:43:04;10.40;99.90
37460;DHT22;23318;50.966;5.284;2023-02-03T11:45:47;10.40;99.90
37460;DHT22;23318;50.966;5.284;2023-02-03T12:17:44;10.40;99.90
37460;DHT22;23318;50.966;5.284;2023-02-03T12:23:24;10.50;99.90
37460;DHT22;23318;50.966;5.284;2023-02-03T12:31:13;10.60;99.90
37460;DHT22;23318;50.966;5.284;2023-02-03T12:33:46;10.60;99.90
37460;DHT22;23318;50.966;5.284;2023-02-03T12:38:56;10.60;99.90
37460;DHT22;23318;50.966;5.284;2023-02-03T12:41:30;10.50;99.90
37460;DHT22;23318;50.966;5.284;2023-02-03T12:44:07;10.50;99.90
37460;DHT22;23318;50.966;5.284;2023-02-03T12:46:41;10.50;99.90
37460;DHT22;23318;50.966;5.284;2023-02-03T12:51:55;10.50;99.90
37460;DHT22;23318;50.966;5.284;2023-02-03T12:57:43;10.60;99.90
37460;DHT22;23318;50.966;5.284;2023-02-03T13:00:45;10.60;99.90
37460;DHT22;23318;50.966;5.284;2023-02-03T13:08:47;10.50;99.90
37460;DHT22;23318;50.966;5.284;2023-02-03T13:11:32;10.50;99.90
37460;DHT22;23318;50.966;5.284;2023-02-03T13:16:53;10.50;99.90
37460;DHT22;23318;50.966;5.284;2023-02-03T13:19:23;10.60;99.90
37460;DHT22;23318;50.966;5.284;2023-02-03T13:21:50;10.60;99.90
37460;DHT22;23318;50.966;5.284;2023-02-03T13:24:16;10.60;99.90
37460;DHT22;23318;50.966;5.284;2023-02-03T13:26:51;10.60;99.90
37460;DHT22;23318;50.966;5.284;2023-02-03T13:40:27;10.50;99.90
37460;DHT22;23318;50.966;5.284;2023-02-03T13:43:09;10.40;99.90
37460;DHT22;23318;50.966;5.284;2023-02-03T13:45:36;10.50;99.90
37460;DHT22;23318;50.966;5.284;2023-02-03T13:48:24;10.50;99.90
37460;DHT22;23318;50.966;5.284;2023-02-03T13:51:02;10.60;99.90
37460;DHT22;23318;50.966;5.284;2023-02-03T13:53:36;10.50;99.90
37460;DHT22;23318;50.966;5.284;2023-02-03T13:56:06;10.60;99.90
37460;DHT22;23318;50.966;5.284;2023-02-03T13:58:35;10.60;99.90
37460;DHT22;23318;50.966;5.284;2023-02-03T14:05:59;10.70;99.90
37460;DHT22;23318;50.966;5.284;2023-02-03T14:16:34;10.60;99.90
37460;DHT22;23318;50.966;5.284;2023-02-03T14:19:00;10.70;99.90
37460;DHT22;23318;50.966;5.284;2023-02-03T14:21:34;10.70;99.90
37460;DHT22;23318;50.966;5.284;2023-02-03T14:24:04;10.60;99.90
37460;DHT22;23318;50.966;5.284;2023-02-03T14:29:04;10.70;99.90
37460;DHT22;23318;50.966;5.284;2023-02-03T14:31:30;10.60;99.90
37460;DHT22;23318;50.966;5.284;2023-02-03T14:34:06;10.70;99.90
37460;DHT22;23318;50.966;5.284;2023-02-03T14:36:43;10.80;99.90
37460;DHT22;23318;50.966;5.284;2023-02-03T14:41:58;10.80;99.90
37460;DHT22;23318;50.966;5.284;2023-02-03T14:44:45;10.80;99.90
37460;DHT22;23318;50.966;5.284;2023-02-03T14:58:20;10.90;99.90
37460;DHT22;23318;50.966;5.284;2023-02-03T15:00:47;10.80;99.90
37460;DHT22;23318;50.966;5.284;2023-02-03T15:03:18;10.80;99.90
37460;DHT22;23318;50.966;5.284;2023-02-03T15:06:27;10.80;99.90
37460;DHT22;23318;50.966;5.284;2023-02-03T15:08:52;10.90;99.90
37460;DHT22;23318;50.966;5.284;2023-02-03T15:14:28;10.80;99.90
37460;DHT22;23318;50.966;5.284;2023-02-03T15:17:01;10.80;99.90
37460;DHT22;23318;50.966;5.284;2023-02-03T15:19:32;10.80;99.90
37460;DHT22;23318;50.966;5.284;2023-02-03T15:21:58;10.80;99.90
37460;DHT22;23318;50.966;5.284;2023-02-03T15:24:24;10.80;99.90
37460;DHT22;23318;50.966;5.284;2023-02-03T15:26:53;10.90;99.90
37460;DHT22;23318;50.966;5.284;2023-02-03T15:29:31;10.90;99.90
37460;DHT22;23318;50.966;5.284;2023-02-03T15:32:24;10.90;99.90
37460;DHT22;23318;50.966;5.284;2023-02-03T15:34:52;10.90;99.90
37460;DHT22;23318;50.966;5.284;2023-02-03T15:40:04;10.90;99.90
37460;DHT22;23318;50.966;5.284;2023-02-03T15:42:53;11.00;99.90
37460;DHT22;23318;50.966;5.284;2023-02-03T15:45:37;10.80;99.90
37460;DHT22;23318;50.966;5.284;2023-02-03T15:54:20;10.80;99.90
37460;DHT22;23318;50.966;5.284;2023-02-03T15:56:56;10.80;99.90
37460;DHT22;23318;50.966;5.284;2023-02-03T15:59:35;10.80;99.90
37460;DHT22;23318;50.966;5.284;2023-02-03T16:02:29;10.80;99.90
37460;DHT22;23318;50.966;5.284;2023-02-03T16:04:56;10.80;99.90
37460;DHT22;23318;50.966;5.284;2023-02-03T16:07:27;10.80;99.90
37460;DHT22;23318;50.966;5.284;2023-02-03T16:09:56;10.90;99.90
37460;DHT22;23318;50.966;5.284;2023-02-03T16:12:30;11.00;99.90
37460;DHT22;23318;50.966;5.284;2023-02-03T16:14:57;10.90;99.90
37460;DHT22;23318;50.966;5.284;2023-02-03T16:17:34;10.90;99.90
37460;DHT22;23318;50.966;5.284;2023-02-03T16:20:22;10.90;99.90
37460;DHT22;23318;50.966;5.284;2023-02-03T16:25:28;10.80;99.90
37460;DHT22;23318;50.966;5.284;2023-02-03T16:28:15;10.70;99.90
37460;DHT22;23318;50.966;5.284;2023-02-03T16:31:13;10.80;99.90
37460;DHT22;23318;50.966;5.284;2023-02-03T16:34:00;10.70;99.90
37460;DHT22;23318;50.966;5.284;2023-02-03T16:36:45;10.70;99.90
37460;DHT22;23318;50.966;5.284;2023-02-03T16:39:29;10.70;99.90
37460;DHT22;23318;50.966;5.284;2023-02-03T16:42:18;10.70;99.90
37460;DHT22;23318;50.966;5.284;2023-02-03T16:45:09;10.60;99.90
37460;DHT22;23318;50.966;5.284;2023-02-03T16:47:55;10.60;99.90
37460;DHT22;23318;50.966;5.284;2023-02-03T16:50:39;10.70;99.90
37460;DHT22;23318;50.966;5.284;2023-02-03T16:53:25;10.60;99.90
37460;DHT22;23318;50.966;5.284;2023-02-03T16:55:53;10.60;99.90
37460;DHT22;23318;50.966;5.284;2023-02-03T16:58:19;10.60;99.90
37460;DHT22;23318;50.966;5.284;2023-02-03T17:00:48;10.70;99.90
37460;DHT22;23318;50.966;5.284;2023-02-03T17:03:18;10.70;99.90
37460;DHT22;23318;50.966;5.284;2023-02-03T17:05:45;10.70;99.90
37460;DHT22;23318;50.966;5.284;2023-02-03T17:08:12;10.70;99.90
37460;DHT22;23318;50.966;5.284;2023-02-03T17:10:41;10.80;99.90
37460;DHT22;23318;50.966;5.284;2023-02-03T17:13:07;10.60;99.90
37460;DHT22;23318;50.966;5.284;2023-02-03T17:15:37;10.60;99.90
37460;DHT22;23318;50.966;5.284;2023-02-03T17:18:03;10.70;99.90
37460;DHT22;23318;50.966;5.284;2023-02-03T17:20:29;10.60;99.90
37460;DHT22;23318;50.966;5.284;2023-02-03T17:22:55;10.60;99.90
37460;DHT22;23318;50.966;5.284;2023-02-03T17:25:21;10.50;99.90
37460;DHT22;23318;50.966;5.284;2023-02-03T17:27:46;10.50;99.90
37460;DHT22;23318;50.966;5.284;2023-02-03T17:30:12;10.50;99.90
37460;DHT22;23318;50.966;5.284;2023-02-03T17:32:39;10.60;99.90
37460;DHT22;23318;50.966;5.284;2023-02-03T17:35:04;10.60;99.90
37460;DHT22;23318;50.966;5.284;2023-02-03T17:37:34;10.60;99.90
37460;DHT22;23318;50.966;5.284;2023-02-03T17:40:00;10.60;99.90
37460;DHT22;23318;50.966;5.284;2023-02-03T17:42:26;10.50;99.90
37460;DHT22;23318;50.966;5.284;2023-02-03T17:44:52;10.50;99.90
37460;DHT22;23318;50.966;5.284;2023-02-03T17:47:18;10.40;99.90
37460;DHT22;23318;50.966;5.284;2023-02-03T17:49:44;10.50;99.90
37460;DHT22;23318;50.966;5.284;2023-02-03T17:52:11;10.60;99.90
37460;DHT22;23318;50.966;5.284;2023-02-03T17:54:37;10.50;99.90
37460;DHT22;23318;50.966;5.284;2023-02-03T17:57:03;10.50;99.90
37460;DHT22;23318;50.966;5.284;2023-02-03T17:59:29;10.50;99.90
37460;DHT22;23318;50.966;5.284;2023-02-03T18:01:55;10.50;99.90
37460;DHT22;23318;50.966;5.284;2023-02-03T18:04:20;10.40;99.90
37460;DHT22;23318;50.966;5.284;2023-02-03T18:06:46;10.40;99.90
37460;DHT22;23318;50.966;5.284;2023-02-03T18:09:12;10.40;99.90
37460;DHT22;23318;50.966;5.284;2023-02-03T18:11:41;10.50;99.90
37460;DHT22;23318;50.966;5.284;2023-02-03T18:14:09;10.40;99.90
37460;DHT22;23318;50.966;5.284;2023-02-03T18:16:36;10.40;99.90
37460;DHT22;23318;50.966;5.284;2023-02-03T18:19:04;10.50;99.90
37460;DHT22;23318;50.966;5.284;2023-02-03T18:21:30;10.50;99.90
37460;DHT22;23318;50.966;5.284;2023-02-03T18:23:57;10.40;99.90
37460;DHT22;23318;50.966;5.284;2023-02-03T18:26:28;10.40;99.90
37460;DHT22;23318;50.966;5.284;2023-02-03T18:28:57;10.30;99.90
37460;DHT22;23318;50.966;5.284;2023-02-03T18:31:22;10.30;99.90
37460;DHT22;23318;50.966;5.284;2023-02-03T18:33:50;10.20;99.90